Time;durP1;ratioP1;P1;durP2;ratioP2;P2;SDS_P1;SDS_P2;PMS_P1;PMS_P2;Temp;Humidity;BMP_temperature;BMP_pressure;BME280_temperature;BME280_humidity;BME280_pressure;Samples;Min_cycle;Max_cycle;Signal;HPM_P1;HPM_P2
2023/05/03 00:02:09;;;;;;;3.50;2.88;;;19.20;60.70;;;;;;4996635;28;20029;-49
2023/05/03 00:04:35;;;;;;;3.60;2.80;;;19.20;60.80;;;;;;5015689;28;20844;-48
2023/05/03 00:07:00;;;;;;;4.65;2.90;;;19.20;60.80;;;;;;5011820;28;20041;-49
2023/05/03 00:09:26;;;;;;;4.00;2.53;;;19.20;60.70;;;;;;5008150;28;20263;-46
2023/05/03 00:11:52;;;;;;;4.65;3.30;;;19.20;60.80;;;;;;5009547;28;20503;-47
2023/05/03 00:14:18;;;;;;;4.15;2.92;;;19.20;60.70;;;;;;5007079;28;20037;-47
2023/05/03 00:16:43;;;;;;;3.65;2.92;;;19.20;60.70;;;;;;5011709;28;20033;-48
2023/05/03 00:19:09;;;;;;;3.92;2.63;;;19.20;60.70;;;;;;5013713;28;20097;-50
2023/05/03 00:21:34;;;;;;;4.60;2.72;;;19.20;60.70;;;;;;5007308;28;20044;-49
2023/05/03 00:24:00;;;;;;;4.03;2.60;;;19.20;60.70;;;;;;5008414;28;20034;-47
2023/05/03 00:26:27;;;;;;;4.20;2.80;;;19.20;60.70;;;;;;5009639;28;20060;-47
2023/05/03 00:28:53;;;;;;;3.38;2.67;;;19.20;60.70;;;;;;5006899;28;20026;-45
2023/05/03 00:31:18;;;;;;;3.35;2.40;;;19.20;60.70;;;;;;5013667;28;20026;-48
2023/05/03 00:33:44;;;;;;;4.35;2.70;;;19.20;60.60;;;;;;5015045;28;20866;-48
2023/05/03 00:36:11;;;;;;;2.90;2.60;;;19.20;60.80;;;;;;4986253;28;20073;-49
2023/05/03 00:38:37;;;;;;;3.50;2.60;;;19.20;60.70;;;;;;4989778;28;20165;-49
2023/05/03 00:41:03;;;;;;;3.78;2.70;;;19.20;61.40;;;;;;5008986;28;20106;-48
2023/05/03 00:43:29;;;;;;;3.20;2.60;;;19.20;60.70;;;;;;5010122;28;20037;-47
2023/05/03 00:45:55;;;;;;;4.55;2.60;;;19.20;60.70;;;;;;5011606;28;20533;-48
2023/05/03 00:48:20;;;;;;;3.45;2.75;;;19.20;60.70;;;;;;5014819;28;20032;-47
2023/05/03 00:50:46;;;;;;;4.82;3.03;;;19.20;60.70;;;;;;5005175;28;20033;-47
2023/05/03 00:53:13;;;;;;;4.95;2.65;;;19.20;60.70;;;;;;4992544;28;20044;-47
2023/05/03 00:55:39;;;;;;;4.95;2.72;;;19.20;60.70;;;;;;5008719;28;20044;-48
2023/05/03 00:58:05;;;;;;;2.92;2.45;;;19.20;60.80;;;;;;5007959;28;20059;-49
2023/05/03 01:00:31;;;;;;;4.22;2.80;;;19.20;60.80;;;;;;5014850;28;20037;-48
2023/05/03 01:02:57;;;;;;;3.15;2.58;;;19.20;60.70;;;;;;5015841;28;20029;-49
2023/05/03 01:05:27;;;;;;;2.67;2.28;;;19.20;60.70;;;;;;5005273;28;20069;-49
2023/05/03 01:08:10;;;;;;;3.30;2.15;;;19.20;60.80;;;;;;5008426;28;20033;-48
2023/05/03 01:11:06;;;;;;;2.63;2.40;;;19.20;60.90;;;;;;5009168;28;20038;-49
2023/05/03 01:13:51;;;;;;;;;;;19.20;60.90;;;;;;5006530;28;20138;-49
2023/05/03 01:16:38;;;;;;;2.63;2.28;;;19.10;60.90;;;;;;5012313;28;19920;-47
2023/05/03 01:19:18;;;;;;;2.58;2.10;;;19.10;61.00;;;;;;5010535;28;20084;-47
2023/05/03 01:21:49;;;;;;;2.72;2.30;;;19.10;61.00;;;;;;5005479;28;20072;-50
2023/05/03 01:24:20;;;;;;;4.32;2.53;;;19.10;61.10;;;;;;5007616;28;20057;-49
2023/05/03 01:26:46;;;;;;;3.92;2.30;;;19.10;61.10;;;;;;5008135;28;20517;-50
2023/05/03 01:29:11;;;;;;;3.10;2.17;;;19.10;61.10;;;;;;5011691;28;20048;-48
2023/05/03 01:32:08;;;;;;;3.38;2.40;;;19.10;61.10;;;;;;4993376;28;20037;-48
2023/05/03 01:34:48;;;;;;;2.88;1.77;;;19.00;61.10;;;;;;4966696;28;20092;-49
2023/05/03 01:37:14;;;;;;;2.35;2.15;;;19.00;61.10;;;;;;5010252;28;20034;-49
2023/05/03 01:39:58;;;;;;;3.67;2.03;;;19.00;61.20;;;;;;5008109;28;20116;-47
2023/05/03 01:42:25;;;;;;;3.72;2.55;;;19.10;61.10;;;;;;5008319;28;20041;-49
2023/05/03 01:44:53;;;;;;;4.95;2.28;;;19.00;61.10;;;;;;5013388;28;20399;-47
2023/05/03 01:47:18;;;;;;;3.80;2.40;;;19.00;61.10;;;;;;5013741;28;20508;-48
2023/05/03 01:49:44;;;;;;;3.30;2.20;;;19.10;61.20;;;;;;5004388;28;20092;-52
2023/05/03 01:52:09;;;;;;;4.22;2.10;;;19.10;61.20;;;;;;5009344;28;20032;-49
2023/05/03 01:54:35;;;;;;;3.03;2.45;;;19.10;61.10;;;;;;5004769;28;20399;-49
2023/05/03 01:57:00;;;;;;;3.55;2.63;;;19.10;61.20;;;;;;4995088;28;20069;-49
2023/05/03 01:59:26;;;;;;;3.38;1.83;;;19.00;61.10;;;;;;5013417;28;20053;-46
2023/05/03 02:01:51;;;;;;;3.30;2.17;;;19.10;61.20;;;;;;5007202;28;20526;-51
2023/05/03 02:04:17;;;;;;;2.33;1.85;;;19.00;61.20;;;;;;5008209;28;20340;-47
2023/05/03 02:06:42;;;;;;;2.67;1.90;;;19.10;61.20;;;;;;4993399;28;20475;-49
2023/05/03 02:09:08;;;;;;;2.30;1.75;;;19.10;61.20;;;;;;5007291;28;20033;-49
2023/05/03 02:11:33;;;;;;;2.50;2.20;;;19.10;61.20;;;;;;5008580;28;20567;-48
2023/05/03 02:13:59;;;;;;;2.53;1.80;;;19.00;61.10;;;;;;5010376;28;20050;-49
2023/05/03 02:16:25;;;;;;;2.30;1.80;;;19.00;61.20;;;;;;5012966;28;20079;-51
2023/05/03 02:18:50;;;;;;;2.78;2.15;;;19.00;61.10;;;;;;5002589;28;20113;-50
2023/05/03 02:21:16;;;;;;;3.05;1.88;;;19.00;61.20;;;;;;5003456;28;20108;-49
2023/05/03 02:23:41;;;;;;;3.95;2.20;;;19.00;61.20;;;;;;5006398;28;20430;-47
2023/05/03 02:26:07;;;;;;;2.70;1.85;;;19.00;61.20;;;;;;5010049;28;20561;-47
2023/05/03 02:28:33;;;;;;;2.50;1.92;;;19.00;61.20;;;;;;5008557;28;20482;-46
2023/05/03 02:30:58;;;;;;;1.92;1.83;;;19.00;61.20;;;;;;5010193;28;20046;-47
2023/05/03 02:33:24;;;;;;;2.50;1.83;;;19.00;61.20;;;;;;5005307;28;20030;-49
2023/05/03 02:35:50;;;;;;;2.25;1.88;;;19.00;61.20;;;;;;4990844;28;20095;-49
2023/05/03 02:38:15;;;;;;;2.85;2.00;;;19.00;61.20;;;;;;5003658;28;20733;-46
2023/05/03 02:40:40;;;;;;;2.05;1.70;;;19.00;61.20;;;;;;5007441;28;20060;-47
2023/05/03 02:43:06;;;;;;;2.30;1.70;;;19.00;61.20;;;;;;5012668;28;20649;-47
2023/05/03 02:45:33;;;;;;;2.97;1.70;;;19.00;61.20;;;;;;5014107;28;20042;-48
2023/05/03 02:47:59;;;;;;;2.58;1.73;;;19.00;61.20;;;;;;5006017;28;20034;-48
2023/05/03 02:50:25;;;;;;;3.15;1.95;;;19.00;61.20;;;;;;5005473;28;20030;-48
2023/05/03 02:52:50;;;;;;;3.20;2.00;;;19.00;61.10;;;;;;5003927;28;20972;-47
2023/05/03 02:55:16;;;;;;;2.38;1.98;;;19.00;61.20;;;;;;5006218;28;20133;-48
2023/05/03 02:57:41;;;;;;;3.10;2.00;;;19.00;61.10;;;;;;5009564;28;20048;-47
2023/05/03 03:00:10;;;;;;;2.47;1.95;;;19.00;61.20;;;;;;4980229;28;20161;-48
2023/05/03 03:02:35;;;;;;;2.35;1.90;;;19.00;61.20;;;;;;5010391;28;20046;-46
2023/05/03 03:05:01;;;;;;;1.98;1.50;;;19.00;61.20;;;;;;5011142;28;20036;-46
2023/05/03 03:07:26;;;;;;;1.90;1.70;;;19.00;61.10;;;;;;5009460;28;20029;-48
2023/05/03 03:09:52;;;;;;;2.92;1.73;;;19.00;61.10;;;;;;5025846;23;20022;-59
2023/05/03 03:12:17;;;;;;;2.30;1.73;;;19.00;61.10;;;;;;5040527;28;20033;-59
2023/05/03 03:14:44;;;;;;;2.00;1.50;;;19.00;61.30;;;;;;5047261;28;20124;-58
2023/05/03 03:17:11;;;;;;;1.70;1.30;;;19.00;61.20;;;;;;5044715;28;20036;-57
2023/05/03 03:19:36;;;;;;;3.03;2.08;;;19.00;61.10;;;;;;5036682;28;20029;-58
2023/05/03 03:22:02;;;;;;;1.70;1.50;;;19.00;61.10;;;;;;5039049;28;20037;-59
2023/05/03 03:24:27;;;;;;;1.85;1.55;;;19.00;61.00;;;;;;5042695;28;20017;-61
2023/05/03 03:26:52;;;;;;;1.88;1.58;;;19.00;61.00;;;;;;5041447;28;20127;-60
2023/05/03 03:29:18;;;;;;;2.40;1.85;;;19.00;61.00;;;;;;5038148;28;20118;-59
2023/05/03 03:31:43;;;;;;;2.13;1.80;;;19.00;61.10;;;;;;5039195;28;20040;-59
2023/05/03 03:34:11;;;;;;;2.13;1.85;;;19.00;61.00;;;;;;5043099;28;20630;-61
2023/05/03 03:36:38;;;;;;;2.67;2.00;;;19.00;61.00;;;;;;5041882;28;20035;-59
2023/05/03 03:39:04;;;;;;;1.98;1.52;;;19.00;61.00;;;;;;5041158;28;20600;-60
2023/05/03 03:41:30;;;;;;;3.03;1.67;;;19.00;61.10;;;;;;5042434;28;20037;-60
2023/05/03 03:43:56;;;;;;;1.83;1.42;;;19.00;61.00;;;;;;5041904;28;20079;-59
2023/05/03 03:46:21;;;;;;;1.38;1.20;;;19.00;61.00;;;;;;5020400;28;20025;-60
2023/05/03 03:48:47;;;;;;;1.58;1.38;;;19.00;61.00;;;;;;5023756;28;20040;-59
2023/05/03 03:51:12;;;;;;;1.50;1.40;;;19.00;61.00;;;;;;5042463;28;20548;-60
2023/05/03 03:53:38;;;;;;;2.22;1.55;;;19.00;61.10;;;;;;5038539;28;20018;-60
2023/05/03 03:56:04;;;;;;;2.53;1.50;;;19.00;61.00;;;;;;5047707;28;20032;-59
2023/05/03 03:58:29;;;;;;;1.42;1.33;;;19.00;61.00;;;;;;5041110;28;20052;-59
2023/05/03 04:00:55;;;;;;;1.70;1.60;;;19.00;61.00;;;;;;5040777;28;20033;-60
2023/05/03 04:03:21;;;;;;;2.67;1.88;;;19.00;60.90;;;;;;5045882;28;20083;-60
2023/05/03 04:05:46;;;;;;;2.10;1.10;;;19.00;60.90;;;;;;5040712;28;20032;-60
2023/05/03 04:08:12;;;;;;;2.83;1.60;;;19.00;61.00;;;;;;5039973;28;20056;-59
2023/05/03 04:10:37;;;;;;;2.72;1.67;;;19.00;61.00;;;;;;5041334;28;20037;-60
2023/05/03 04:13:03;;;;;;;1.90;1.40;;;19.00;61.00;;;;;;5045196;28;20052;-59
2023/05/03 04:15:28;;;;;;;3.00;1.42;;;19.00;61.00;;;;;;5040570;28;20409;-60
2023/05/03 04:17:54;;;;;;;1.30;1.20;;;19.00;61.00;;;;;;5038874;28;20405;-59
2023/05/03 04:20:20;;;;;;;1.90;1.58;;;18.90;61.00;;;;;;5039638;28;20029;-60
2023/05/03 04:22:45;;;;;;;1.58;1.30;;;18.90;61.00;;;;;;5038098;28;20541;-59
2023/05/03 04:25:15;;;;;;;1.30;1.05;;;18.90;61.00;;;;;;5041943;28;20112;-60
2023/05/03 04:27:42;;;;;;;4.30;1.23;;;18.90;61.70;;;;;;5024121;28;20049;-60
2023/05/03 04:30:08;;;;;;;3.13;1.40;;;18.90;61.00;;;;;;5041755;28;20681;-59
2023/05/03 04:32:36;;;;;;;2.38;1.50;;;18.90;61.00;;;;;;5029485;28;20063;-59
2023/05/03 04:35:09;;;;;;;3.33;2.05;;;18.90;61.10;;;;;;5046105;28;20052;-61
2023/05/03 04:37:41;;;;;;;2.38;1.77;;;18.90;61.10;;;;;;5035610;28;20033;-59
2023/05/03 04:40:07;;;;;;;2.53;2.05;;;18.90;61.20;;;;;;5045885;28;20119;-61
2023/05/03 04:42:34;;;;;;;3.38;2.00;;;18.90;61.30;;;;;;5013958;28;20526;-60
2023/05/03 04:45:01;;;;;;;3.53;2.25;;;18.90;61.30;;;;;;5023636;28;20490;-61
2023/05/03 04:47:27;;;;;;;4.28;2.22;;;18.90;61.30;;;;;;5038182;28;20111;-60
2023/05/03 04:49:53;;;;;;;3.72;2.33;;;18.90;61.30;;;;;;5036984;28;20116;-61
2023/05/03 04:52:18;;;;;;;3.67;2.30;;;18.90;61.30;;;;;;5041250;28;20040;-61
2023/05/03 04:54:44;;;;;;;4.47;2.50;;;18.80;61.30;;;;;;5042406;28;20045;-62
2023/05/03 04:57:10;;;;;;;4.15;2.58;;;18.80;61.30;;;;;;5045743;28;20493;-60
2023/05/03 04:59:35;;;;;;;3.25;2.47;;;18.80;62.00;;;;;;5038174;28;20033;-61
2023/05/03 05:02:01;;;;;;;4.70;2.58;;;18.80;61.30;;;;;;5014951;28;20706;-60
2023/05/03 05:04:27;;;;;;;5.82;2.85;;;18.80;61.40;;;;;;5042620;28;20629;-60
2023/05/03 05:06:53;;;;;;;4.00;2.80;;;18.80;61.40;;;;;;5036235;28;20029;-61
2023/05/03 05:09:23;;;;;;;7.55;3.30;;;18.80;61.40;;;;;;5020314;28;20021;-60
2023/05/03 05:11:48;;;;;;;8.38;3.60;;;18.80;61.40;;;;;;5036918;28;20215;-61
2023/05/03 05:14:14;;;;;;;31.10;13.30;;;18.80;61.40;;;;;;5034917;28;20108;-60
2023/05/03 05:16:40;;;;;;;20.20;10.65;;;18.90;62.50;;;;;;5039006;28;20029;-61
2023/05/03 05:19:06;;;;;;;23.98;10.40;;;19.00;62.00;;;;;;5041470;28;20418;-61
2023/05/03 05:21:31;;;;;;;21.73;9.35;;;19.00;61.90;;;;;;5038878;28;20354;-61
2023/05/03 05:23:57;;;;;;;20.80;8.98;;;19.10;61.90;;;;;;5038473;28;20026;-61
2023/05/03 05:26:22;;;;;;;20.38;9.65;;;19.20;61.50;;;;;;5040062;28;20096;-61
2023/05/03 05:28:48;;;;;;;24.88;9.15;;;19.30;61.50;;;;;;5043530;28;20022;-61
2023/05/03 05:31:14;;;;;;;21.80;8.82;;;19.30;61.10;;;;;;5039635;28;20390;-60
2023/05/03 05:33:40;;;;;;;20.83;8.82;;;19.40;61.10;;;;;;5037929;28;20029;-62
2023/05/03 05:36:05;;;;;;;20.52;9.43;;;19.40;61.00;;;;;;5038949;28;20485;-61
2023/05/03 05:38:31;;;;;;;16.33;7.93;;;19.40;60.90;;;;;;5036946;28;20032;-60
2023/05/03 05:40:56;;;;;;;17.05;7.78;;;19.40;60.80;;;;;;5039534;28;20025;-61
2023/05/03 05:43:22;;;;;;;14.18;7.38;;;19.50;60.80;;;;;;5039520;28;20040;-61
2023/05/03 05:45:47;;;;;;;18.85;7.70;;;19.50;60.70;;;;;;5037314;28;20033;-60
2023/05/03 05:48:13;;;;;;;17.00;8.48;;;19.50;60.60;;;;;;5038677;28;20114;-61
2023/05/03 05:50:38;;;;;;;14.13;6.95;;;19.50;60.50;;;;;;5039154;28;20029;-61
2023/05/03 05:53:04;;;;;;;15.27;6.80;;;19.50;60.50;;;;;;5043960;28;20036;-62
2023/05/03 05:55:30;;;;;;;19.35;7.43;;;19.50;60.50;;;;;;5038446;28;20461;-61
2023/05/03 05:57:55;;;;;;;19.02;6.63;;;19.50;60.40;;;;;;5038144;28;20433;-61
2023/05/03 06:00:21;;;;;;;12.85;6.50;;;19.50;60.40;;;;;;5040608;28;20025;-60
2023/05/03 06:02:47;;;;;;;11.82;6.32;;;19.50;60.30;;;;;;5022769;28;20029;-60
2023/05/03 06:05:13;;;;;;;12.23;5.80;;;19.50;60.30;;;;;;5040347;28;20040;-60
2023/05/03 06:07:39;;;;;;;14.77;5.93;;;19.50;60.30;;;;;;5037121;28;20271;-61
2023/05/03 06:10:05;;;;;;;17.98;7.05;;;19.50;60.30;;;;;;5038693;28;20065;-59
2023/05/03 06:12:31;;;;;;;12.07;5.55;;;19.50;60.20;;;;;;5032930;28;20040;-61
2023/05/03 06:14:56;;;;;;;10.68;5.38;;;19.50;60.20;;;;;;5026645;28;20033;-60
2023/05/03 06:17:22;;;;;;;11.55;5.95;;;19.60;60.20;;;;;;5015996;28;20036;-60
2023/05/03 06:19:48;;;;;;;12.75;5.75;;;19.50;60.10;;;;;;5041129;28;20066;-58
2023/05/03 06:22:14;;;;;;;9.05;5.47;;;19.50;60.00;;;;;;5038662;28;20131;-60
2023/05/03 06:24:39;;;;;;;14.70;5.28;;;19.60;60.00;;;;;;5036132;28;20045;-59
2023/05/03 06:27:05;;;;;;;13.23;5.78;;;19.60;59.90;;;;;;5021781;28;20532;-60
2023/05/03 06:29:30;;;;;;;14.55;4.90;;;19.60;59.80;;;;;;5006191;28;20686;-60
2023/05/03 06:31:56;;;;;;;12.70;4.57;;;19.60;59.80;;;;;;5039807;28;20039;-60
2023/05/03 06:34:21;;;;;;;11.38;4.30;;;19.60;59.80;;;;;;5036195;28;20533;-59
2023/05/03 06:36:48;;;;;;;10.05;4.22;;;19.60;59.70;;;;;;5038770;28;20490;-59
2023/05/03 06:39:14;;;;;;;11.27;4.80;;;19.60;59.70;;;;;;5039909;28;20124;-60
2023/05/03 06:41:39;;;;;;;9.68;4.40;;;19.60;59.70;;;;;;5038703;28;20782;-60
2023/05/03 06:44:06;;;;;;;8.20;5.15;;;19.60;59.70;;;;;;5039207;28;20035;-60
2023/05/03 06:46:31;;;;;;;8.80;4.40;;;19.60;59.70;;;;;;5033818;28;20553;-60
2023/05/03 06:48:57;;;;;;;7.47;4.50;;;19.60;59.70;;;;;;5035007;28;20037;-60
2023/05/03 06:51:26;;;;;;;8.13;4.50;;;19.60;59.80;;;;;;5038259;28;20029;-60
2023/05/03 06:53:54;;;;;;;9.15;4.25;;;19.60;59.70;;;;;;5038412;28;20024;-60
2023/05/03 06:56:20;;;;;;;6.57;4.18;;;19.60;59.70;;;;;;5038468;28;20136;-59
2023/05/03 06:58:46;;;;;;;7.07;3.38;;;19.60;59.70;;;;;;5039863;28;20245;-60
2023/05/03 07:01:11;;;;;;;8.38;3.78;;;19.70;59.60;;;;;;5039432;28;20389;-60
2023/05/03 07:03:37;;;;;;;7.82;3.75;;;19.70;59.60;;;;;;5035354;28;20041;-61
2023/05/03 07:06:03;;;;;;;8.40;3.60;;;19.70;59.60;;;;;;5037821;28;20025;-59
2023/05/03 07:08:28;;;;;;;9.15;3.85;;;19.70;59.60;;;;;;5035946;28;20758;-61
2023/05/03 07:10:54;;;;;;;7.32;3.45;;;19.70;59.60;;;;;;5036895;28;20120;-60
2023/05/03 07:13:19;;;;;;;9.18;3.55;;;19.70;59.60;;;;;;5036356;28;20121;-60
2023/05/03 07:15:45;;;;;;;8.38;3.40;;;19.60;59.50;;;;;;5036050;28;20030;-59
2023/05/03 07:18:10;;;;;;;6.80;3.00;;;19.70;59.60;;;;;;5037217;28;20049;-60
2023/05/03 07:20:36;;;;;;;7.20;3.42;;;19.70;59.70;;;;;;5034434;28;20036;-60
2023/05/03 07:23:01;;;;;;;8.30;4.00;;;19.60;59.60;;;;;;5038304;28;20083;-59
2023/05/03 07:25:27;;;;;;;6.28;3.08;;;19.70;59.60;;;;;;5039823;28;20052;-60
2023/05/03 07:27:52;;;;;;;12.00;3.45;;;19.70;59.70;;;;;;5045482;28;20025;-60
2023/05/03 07:30:18;;;;;;;10.02;3.65;;;19.70;59.60;;;;;;5038453;28;20033;-59
2023/05/03 07:32:44;;;;;;;7.88;3.75;;;19.70;59.60;;;;;;5038016;28;20029;-60
2023/05/03 07:35:09;;;;;;;8.02;3.45;;;19.70;59.70;;;;;;5035392;28;20041;-60
2023/05/03 07:37:36;;;;;;;10.90;2.90;;;19.70;59.60;;;;;;5039187;28;20021;-60
2023/05/03 07:40:01;;;;;;;6.97;3.45;;;19.60;59.50;;;;;;5034619;28;20021;-60
2023/05/03 07:42:27;;;;;;;10.65;3.58;;;19.70;59.60;;;;;;5038428;28;20029;-60
2023/05/03 07:44:54;;;;;;;7.13;3.97;;;19.60;59.50;;;;;;5033875;28;20029;-60
2023/05/03 07:47:20;;;;;;;9.25;3.63;;;19.70;59.60;;;;;;5039279;28;20032;-60
2023/05/03 07:49:46;;;;;;;8.45;3.45;;;19.70;59.60;;;;;;5040816;28;20029;-59
2023/05/03 07:52:12;;;;;;;9.48;3.42;;;19.70;59.60;;;;;;5015244;28;20537;-59
2023/05/03 07:54:37;;;;;;;9.60;2.70;;;19.70;59.60;;;;;;5037627;28;20050;-60
2023/05/03 07:57:03;;;;;;;8.27;3.50;;;19.70;59.50;;;;;;5043092;28;20029;-60
2023/05/03 07:59:28;;;;;;;6.13;3.08;;;19.70;59.60;;;;;;5011209;28;20029;-60
2023/05/03 08:01:54;;;;;;;8.10;2.83;;;19.70;59.50;;;;;;5039651;28;20021;-59
2023/05/03 08:04:19;;;;;;;6.38;3.25;;;19.60;59.50;;;;;;5042145;28;20036;-60
2023/05/03 08:06:45;;;;;;;5.30;3.08;;;19.70;59.60;;;;;;5045164;28;20067;-59
2023/05/03 08:09:10;;;;;;;7.93;3.00;;;19.60;59.50;;;;;;5042112;28;20164;-59
2023/05/03 08:11:36;;;;;;;5.70;2.50;;;19.60;59.60;;;;;;5012128;28;20045;-60
2023/05/03 08:14:01;;;;;;;6.40;3.08;;;19.60;59.70;;;;;;5037630;28;20761;-60
2023/05/03 08:16:27;;;;;;;8.82;3.25;;;19.60;59.60;;;;;;5017509;28;20137;-58
2023/05/03 08:18:52;;;;;;;8.02;3.38;;;19.60;59.60;;;;;;5039498;28;20176;-61
2023/05/03 08:21:18;;;;;;;10.18;3.08;;;19.60;59.70;;;;;;5042159;28;20490;-61
2023/05/03 08:23:43;;;;;;;7.50;2.90;;;19.60;59.70;;;;;;5041929;28;20037;-60
2023/05/03 08:26:09;;;;;;;6.47;3.05;;;19.60;59.60;;;;;;5041279;28;20021;-59
2023/05/03 08:28:35;;;;;;;4.40;2.50;;;19.70;59.70;;;;;;5040039;28;20031;-60
2023/05/03 08:31:03;;;;;;;4.57;2.78;;;19.70;59.60;;;;;;5038100;28;20030;-60
2023/05/03 08:33:29;;;;;;;5.30;2.67;;;19.70;60.20;;;;;;5041174;28;20032;-61
2023/05/03 08:35:55;;;;;;;7.90;2.90;;;19.70;59.60;;;;;;5041384;28;20067;-59
2023/05/03 08:38:20;;;;;;;4.80;2.60;;;19.80;59.60;;;;;;5042408;28;20124;-60
2023/05/03 08:40:49;;;;;;;4.18;2.65;;;19.80;59.60;;;;;;5036120;28;20094;-60
2023/05/03 08:43:19;;;;;;;4.20;2.25;;;19.80;59.60;;;;;;5037707;28;20079;-60
2023/05/03 08:45:45;;;;;;;7.05;2.42;;;19.80;59.60;;;;;;5044164;28;20033;-60
2023/05/03 08:48:11;;;;;;;6.38;2.78;;;19.80;59.50;;;;;;5043912;28;20044;-60
2023/05/03 08:50:41;;;;;;;5.15;2.63;;;19.80;59.50;;;;;;5043176;28;20057;-60
2023/05/03 08:53:10;;;;;;;3.55;2.20;;;19.80;59.50;;;;;;5042109;28;20058;-60
2023/05/03 08:55:36;;;;;;;5.50;3.50;;;19.80;59.50;;;;;;5041763;28;20033;-60
2023/05/03 08:58:09;;;;;;;5.18;2.28;;;19.80;59.60;;;;;;5040600;28;20249;-61
2023/05/03 09:00:34;;;;;;;5.75;2.35;;;19.80;59.70;;;;;;5040723;28;20060;-60
2023/05/03 09:03:00;;;;;;;5.88;2.30;;;19.70;59.80;;;;;;5041508;28;20062;-60
2023/05/03 09:05:33;;;;;;;4.40;2.28;;;19.80;59.90;;;;;;5041802;28;20078;-60
2023/05/03 09:08:08;;;;;;;5.05;2.97;;;19.80;59.90;;;;;;5037131;28;20029;-59
2023/05/03 09:10:41;;;;;;;4.03;2.35;;;19.80;59.90;;;;;;5028160;28;20060;-60
2023/05/03 09:13:07;;;;;;;7.20;2.53;;;19.70;59.90;;;;;;5041113;28;20221;-60
2023/05/03 09:15:34;;;;;;;3.90;2.20;;;19.70;59.80;;;;;;5039409;28;20045;-61
2023/05/03 09:18:10;;;;;;;6.10;2.72;;;19.70;59.70;;;;;;5027770;28;20087;-60
2023/05/03 09:20:38;;;;;;;11.73;3.05;;;19.70;59.60;;;;;;5039066;28;20033;-61
2023/05/03 09:23:05;;;;;;;10.68;3.47;;;19.70;59.80;;;;;;5040138;28;20125;-60
2023/05/03 09:25:48;;;;;;;10.48;3.03;;;19.70;59.80;;;;;;5039870;28;20033;-60
2023/05/03 09:28:15;;;;;;;6.93;2.53;;;19.70;59.80;;;;;;5039468;28;20029;-60
2023/05/03 09:30:42;;;;;;;8.63;2.92;;;19.70;59.90;;;;;;5035312;28;20108;-60
2023/05/03 09:33:08;;;;;;;9.95;2.60;;;19.70;59.80;;;;;;5009414;28;20034;-60
2023/05/03 09:35:33;;;;;;;9.25;3.55;;;19.80;59.80;;;;;;5039193;28;20044;-59
2023/05/03 09:37:59;;;;;;;10.00;2.63;;;19.80;59.60;;;;;;5039489;28;20123;-59
2023/05/03 09:40:26;;;;;;;7.88;2.42;;;19.80;59.60;;;;;;5018469;28;20078;-60
2023/05/03 09:43:07;;;;;;;6.50;2.83;;;19.80;59.50;;;;;;5038156;28;20053;-60
2023/05/03 09:45:34;;;;;;;7.63;2.05;;;19.80;59.40;;;;;;5039978;28;20241;-59
2023/05/03 09:48:02;;;;;;;7.65;2.72;;;19.90;59.30;;;;;;5022507;28;20057;-62
2023/05/03 09:50:30;;;;;;;6.63;2.42;;;19.90;59.20;;;;;;5038914;28;20055;-62
2023/05/03 09:53:00;;;;;;;3.97;1.90;;;19.90;59.10;;;;;;5021787;28;20049;-60
2023/05/03 09:55:26;;;;;;;7.15;2.10;;;19.80;59.00;;;;;;5040052;28;20501;-61
2023/05/03 09:57:54;;;;;;;6.75;2.10;;;19.90;58.90;;;;;;5036858;28;20029;-60
2023/05/03 10:00:20;;;;;;;5.78;2.13;;;19.80;58.80;;;;;;5037540;28;20068;-61
2023/05/03 10:02:49;;;;;;;6.60;2.00;;;19.80;58.80;;;;;;5038789;28;20443;-60
2023/05/03 10:05:19;;;;;;;4.07;2.20;;;19.80;58.70;;;;;;5039877;28;20033;-60
2023/05/03 10:07:48;;;;;;;5.32;1.88;;;19.80;58.50;;;;;;5012423;28;20517;-61
2023/05/03 10:10:14;;;;;;;3.90;2.05;;;19.80;58.50;;;;;;5020696;28;20040;-61
2023/05/03 10:12:39;;;;;;;5.10;2.53;;;19.80;58.40;;;;;;5039049;28;20029;-61
2023/05/03 10:15:06;;;;;;;10.10;2.40;;;19.80;58.40;;;;;;5040126;28;20028;-62
2023/05/03 10:17:36;;;;;;;3.25;1.92;;;19.80;58.40;;;;;;5038153;28;20047;-61
2023/05/03 10:20:14;;;;;;;4.30;2.45;;;19.90;58.20;;;;;;5021571;28;20065;-61
2023/05/03 10:23:04;;;;;;;4.68;2.47;;;19.90;58.00;;;;;;5038823;28;20216;-60
2023/05/03 10:25:34;;;;;;;3.65;1.77;;;19.80;57.80;;;;;;5027252;28;20037;-60
2023/05/03 10:28:03;;;;;;;7.60;2.22;;;19.80;57.70;;;;;;5037401;28;20489;-61
2023/05/03 10:30:36;;;;;;;5.60;2.40;;;19.90;57.90;;;;;;5038498;28;20068;-61
2023/05/03 10:33:10;;;;;;;6.45;2.20;;;19.80;57.60;;;;;;5025234;28;20029;-61
2023/05/03 10:35:41;;;;;;;9.27;2.47;;;19.80;57.50;;;;;;5038302;28;20060;-61
2023/05/03 10:38:20;;;;;;;5.35;2.17;;;19.80;57.50;;;;;;5039325;28;20063;-61
2023/05/03 10:40:46;;;;;;;7.57;2.65;;;19.80;57.40;;;;;;5038056;28;20429;-61
2023/05/03 10:43:30;;;;;;;9.93;2.40;;;19.80;57.40;;;;;;5038717;28;20039;-62
2023/05/03 10:45:59;;;;;;;12.63;2.67;;;19.80;57.50;;;;;;5039595;28;20040;-61
2023/05/03 10:48:25;;;;;;;9.48;2.65;;;19.80;57.40;;;;;;5039695;28;20033;-61
2023/05/03 10:50:51;;;;;;;6.57;2.15;;;19.80;57.30;;;;;;5038314;28;20151;-60
2023/05/03 10:53:37;;;;;;;11.70;2.50;;;19.80;57.30;;;;;;5044670;28;20063;-61
2023/05/03 10:56:05;;;;;;;;;;;19.80;57.20;;;;;;5046599;28;20029;-60
2023/05/03 10:58:40;;;;;;;4.70;2.10;;;19.80;57.10;;;;;;5036505;28;20607;-62
2023/05/03 11:01:09;;;;;;;4.50;2.13;;;19.80;57.10;;;;;;5035655;28;20033;-61
2023/05/03 11:03:51;;;;;;;8.50;2.55;;;19.80;57.20;;;;;;5037184;28;20029;-61
2023/05/03 11:06:34;;;;;;;5.05;2.00;;;19.80;57.10;;;;;;5039492;28;20032;-61
2023/05/03 11:09:02;;;;;;;6.55;1.80;;;19.80;57.20;;;;;;5036480;28;20215;-60
2023/05/03 11:11:28;;;;;;;8.02;2.50;;;19.80;57.10;;;;;;5037934;28;20067;-61
2023/05/03 11:13:53;;;;;;;4.68;2.30;;;19.70;56.90;;;;;;5039484;28;20540;-61
2023/05/03 11:16:19;;;;;;;7.53;2.20;;;19.70;57.00;;;;;;5044034;28;20756;-61
2023/05/03 11:18:47;;;;;;;7.28;2.05;;;19.70;57.10;;;;;;5037342;28;20033;-61
2023/05/03 11:21:13;;;;;;;4.32;1.70;;;19.70;57.10;;;;;;5021589;28;20040;-61
2023/05/03 11:23:39;;;;;;;4.03;1.90;;;19.70;57.10;;;;;;5041037;28;20036;-62
2023/05/03 11:26:11;;;;;;;5.35;2.15;;;19.70;57.30;;;;;;5044945;28;20378;-61
2023/05/03 11:28:41;;;;;;;3.78;1.60;;;19.70;57.00;;;;;;5037603;28;20033;-62
2023/05/03 11:31:08;;;;;;;5.55;1.85;;;19.70;57.20;;;;;;5037089;28;20048;-60
2023/05/03 11:33:35;;;;;;;2.50;1.60;;;19.70;57.10;;;;;;5023713;28;20406;-59
2023/05/03 11:36:02;;;;;;;5.68;2.00;;;19.70;57.10;;;;;;5041583;28;20044;-61
2023/05/03 11:38:30;;;;;;;5.95;1.80;;;19.70;57.00;;;;;;5040667;28;20108;-60
2023/05/03 11:40:56;;;;;;;5.70;1.92;;;19.70;56.80;;;;;;5028218;28;20053;-61
2023/05/03 11:43:22;;;;;;;3.90;1.98;;;19.70;56.70;;;;;;5044902;28;20506;-60
2023/05/03 11:45:50;;;;;;;4.35;1.70;;;19.70;56.70;;;;;;5048261;28;20030;-61
2023/05/03 11:48:16;;;;;;;2.63;1.50;;;19.70;56.80;;;;;;5040329;28;20032;-60
2023/05/03 11:50:46;;;;;;;2.75;1.52;;;19.70;56.70;;;;;;5010883;28;20110;-60
2023/05/03 11:53:16;;;;;;;5.30;1.40;;;19.70;56.70;;;;;;5042084;28;20037;-60
2023/05/03 11:55:45;;;;;;;3.63;1.90;;;19.70;56.70;;;;;;5039843;28;20036;-60
2023/05/03 11:58:48;;;;;;;2.83;1.33;;;19.70;56.70;;;;;;5020568;28;20032;-61
2023/05/03 12:01:15;;;;;;;6.35;1.85;;;19.70;56.70;;;;;;5039414;28;20029;-60
2023/05/03 12:03:40;;;;;;;3.50;1.63;;;19.70;56.60;;;;;;5039283;28;20041;-61
2023/05/03 12:06:06;;;;;;;5.03;1.45;;;19.70;56.70;;;;;;5041982;28;20036;-61
2023/05/03 12:08:32;;;;;;;2.38;1.80;;;19.70;56.60;;;;;;5044711;28;20367;-60
2023/05/03 12:11:00;;;;;;;3.45;1.55;;;19.70;56.60;;;;;;5040552;28;20033;-66
2023/05/03 12:13:27;;;;;;;3.85;1.42;;;19.70;56.60;;;;;;5054403;28;20060;-61
2023/05/03 12:15:59;;;;;;;2.80;1.40;;;19.70;56.60;;;;;;5041032;28;20045;-61
2023/05/03 12:18:24;;;;;;;4.43;1.52;;;19.60;56.40;;;;;;5044703;28;20033;-62
2023/05/03 12:20:56;;;;;;;11.25;2.30;;;19.70;56.40;;;;;;5040283;28;20397;-62
2023/05/03 12:23:23;;;;;;;10.40;2.22;;;19.70;56.60;;;;;;5028723;28;20032;-61
2023/05/03 12:25:50;;;;;;;7.43;2.20;;;19.70;56.90;;;;;;5042267;28;20079;-63
2023/05/03 12:28:16;;;;;;;8.23;2.00;;;19.70;56.80;;;;;;5028509;28;20341;-61
2023/05/03 12:30:41;;;;;;;8.60;1.80;;;19.70;56.60;;;;;;5044550;28;20877;-61
2023/05/03 12:33:07;;;;;;;8.25;1.77;;;19.70;56.90;;;;;;5039875;28;20029;-60
2023/05/03 12:35:34;;;;;;;6.13;1.63;;;19.70;56.50;;;;;;5044336;28;20045;-62
2023/05/03 12:38:01;;;;;;;2.22;1.40;;;19.70;56.60;;;;;;5044159;28;20037;-62
2023/05/03 12:40:27;;;;;;;7.30;2.28;;;19.70;56.50;;;;;;5020601;28;20025;-60
2023/05/03 12:42:53;;;;;;;5.88;1.70;;;19.70;56.60;;;;;;5041513;28;20039;-61
2023/05/03 12:45:18;;;;;;;6.45;1.63;;;19.70;56.50;;;;;;5041216;28;20037;-62
2023/05/03 12:47:44;;;;;;;7.13;1.92;;;19.70;56.40;;;;;;5040612;28;20033;-61